createdAt,value
2023-01-04T00:02:03.568Z,75.71
2023-01-04T00:04:33.403Z,75.66
2023-01-04T00:07:01.796Z,76.22
2023-01-04T00:09:30.199Z,76.06
2023-01-04T00:11:58.552Z,75.84
2023-01-04T00:14:27.052Z,75.76
2023-01-04T00:16:55.453Z,75.80
2023-01-04T00:19:23.998Z,76.28
2023-01-04T00:21:54.837Z,76.16
2023-01-04T00:24:24.288Z,76.02
2023-01-04T00:26:54.669Z,75.89
2023-01-04T00:29:24.776Z,76.19
2023-01-04T00:31:53.201Z,75.66
2023-01-04T00:34:22.017Z,75.46
2023-01-04T00:36:50.597Z,75.91
2023-01-04T00:39:20.423Z,75.29
2023-01-04T00:41:59.227Z,75.36
2023-01-04T00:44:28.586Z,75.60
2023-01-04T00:46:57.006Z,75.77
2023-01-04T00:49:25.438Z,76.33
2023-01-04T00:51:54.003Z,75.96
2023-01-04T00:54:24.688Z,75.66
2023-01-04T00:56:53.640Z,75.73
2023-01-04T00:59:23.007Z,75.53
2023-01-04T01:01:52.044Z,75.38
2023-01-04T01:04:22.238Z,75.07
2023-01-04T01:06:51.542Z,75.11
2023-01-04T01:09:23.077Z,75.43
2023-01-04T01:11:54.163Z,75.60
2023-01-04T01:14:24.535Z,75.27
2023-01-04T01:16:55.803Z,75.56
2023-01-04T01:19:24.607Z,75.54
2023-01-04T01:21:57.965Z,75.13
2023-01-04T01:24:29.053Z,75.46
2023-01-04T01:26:59.902Z,75.41
2023-01-04T01:29:29.338Z,75.98
2023-01-04T01:31:57.817Z,75.79
2023-01-04T01:34:26.298Z,75.66
2023-01-04T01:36:54.716Z,75.84
2023-01-04T01:39:23.176Z,76.04
2023-01-04T01:41:51.541Z,75.79
2023-01-04T01:45:11.390Z,75.18
2023-01-04T01:47:46.384Z,75.83
2023-01-04T01:50:28.150Z,75.92
2023-01-04T01:52:59.772Z,76.05
2023-01-04T01:55:30.343Z,75.87
2023-01-04T01:57:59.848Z,75.86
2023-01-04T02:00:31.573Z,76.71
2023-01-04T02:03:13.403Z,76.14
2023-01-04T02:05:43.440Z,75.81
2023-01-04T02:08:14.873Z,76.49
2023-01-04T02:10:43.282Z,76.27
2023-01-04T02:13:15.946Z,76.54
2023-01-04T02:15:56.015Z,75.74
2023-01-04T02:18:31.104Z,76.13
2023-01-04T02:21:02.409Z,76.78
2023-01-04T02:24:00.460Z,75.94
2023-01-04T02:26:57.397Z,75.88
2023-01-04T02:29:56.131Z,76.40
2023-01-04T02:32:39.120Z,76.55
2023-01-04T02:35:19.198Z,76.22
2023-01-04T02:37:57.218Z,76.31
2023-01-04T02:40:35.344Z,76.35
2023-01-04T02:43:27.767Z,76.08
2023-01-04T02:46:03.176Z,75.80
2023-01-04T02:48:55.568Z,76.16
2023-01-04T02:51:30.316Z,75.90
2023-01-04T02:54:02.137Z,75.85
2023-01-04T02:56:50.395Z,75.84
2023-01-04T02:59:33.671Z,76.83
2023-01-04T03:02:31.644Z,76.04
2023-01-04T03:05:27.558Z,77.16
2023-01-04T03:08:04.281Z,77.12
2023-01-04T03:10:40.051Z,76.11
2023-01-04T03:13:18.834Z,76.46
2023-01-04T03:15:52.931Z,76.75
2023-01-04T03:18:25.368Z,76.11
2023-01-04T03:20:58.292Z,76.26
2023-01-04T03:23:47.545Z,76.18
2023-01-04T03:26:53.321Z,76.22
2023-01-04T03:29:44.661Z,76.07
2023-01-04T03:32:35.133Z,75.34
2023-01-04T03:35:21.415Z,76.15
2023-01-04T03:38:15.184Z,76.23
2023-01-04T03:41:05.221Z,76.01
2023-01-04T03:44:00.150Z,75.67
2023-01-04T03:46:52.033Z,76.75
2023-01-04T03:49:30.799Z,75.57
2023-01-04T03:52:01.891Z,76.66
2023-01-04T03:54:36.172Z,75.75
2023-01-04T03:57:06.128Z,76.21
2023-01-04T03:59:38.448Z,75.87
2023-01-04T04:02:13.948Z,75.95
2023-01-04T04:05:00.477Z,75.80
2023-01-04T04:07:47.085Z,76.25
2023-01-04T04:10:17.089Z,76.49
2023-01-04T04:12:45.478Z,75.96
2023-01-04T04:15:13.858Z,76.48
2023-01-04T04:17:42.557Z,75.84
2023-01-04T04:20:13.087Z,75.68
2023-01-04T04:22:42.045Z,76.04
2023-01-04T04:25:10.980Z,75.11
2023-01-04T04:27:40.924Z,74.97
2023-01-04T04:30:10.428Z,75.26
2023-01-04T04:32:38.915Z,75.45
2023-01-04T04:35:07.757Z,75.93
2023-01-04T04:37:37.390Z,75.96
2023-01-04T04:40:06.276Z,75.42
2023-01-04T04:42:37.025Z,75.12
2023-01-04T04:45:08.950Z,75.42
2023-01-04T04:47:37.290Z,75.14
2023-01-04T04:50:06.334Z,76.12
2023-01-04T04:52:34.777Z,75.03
2023-01-04T04:55:03.108Z,74.62
2023-01-04T04:57:31.529Z,75.60
2023-01-04T04:59:59.874Z,75.93
2023-01-04T05:02:29.915Z,75.48
2023-01-04T05:05:06.001Z,75.87
2023-01-04T05:07:38.030Z,75.41
2023-01-04T05:10:07.152Z,76.09
2023-01-04T05:12:57.568Z,75.32
2023-01-04T05:15:26.480Z,75.49
2023-01-04T05:17:56.311Z,75.26
2023-01-04T05:20:25.529Z,75.73
2023-01-04T05:22:53.913Z,75.35
2023-01-04T05:25:22.430Z,74.11
2023-01-04T05:27:50.931Z,74.21
2023-01-04T05:30:38.432Z,75.33
2023-01-04T05:33:09.136Z,71.99
2023-01-04T05:35:38.237Z,73.63
2023-01-04T05:38:07.040Z,74.10
2023-01-04T05:40:35.532Z,74.57
2023-01-04T05:43:03.916Z,75.32
2023-01-04T05:45:33.680Z,75.41
2023-01-04T05:48:02.160Z,75.61
2023-01-04T05:50:31.993Z,75.26
2023-01-04T05:53:07.234Z,75.42
2023-01-04T05:55:36.046Z,75.30
2023-01-04T05:58:04.482Z,75.20
2023-01-04T06:00:33.006Z,75.62
2023-01-04T06:03:01.846Z,75.34
2023-01-04T06:05:31.884Z,74.95
2023-01-04T06:08:00.197Z,75.45
2023-01-04T06:10:28.587Z,75.26
2023-01-04T06:12:56.890Z,75.12
2023-01-04T06:15:25.329Z,75.34
2023-01-04T06:17:53.631Z,74.73
2023-01-04T06:20:22.091Z,75.41
2023-01-04T06:22:51.750Z,74.35
2023-01-04T06:25:20.214Z,75.18
2023-01-04T06:27:48.584Z,75.52
2023-01-04T06:30:17.018Z,75.58
2023-01-04T06:32:46.351Z,75.19
2023-01-04T06:35:15.825Z,75.38
2023-01-04T06:37:44.125Z,75.68
2023-01-04T06:40:14.136Z,75.76
2023-01-04T06:42:48.396Z,75.74
2023-01-04T06:45:17.913Z,75.94
2023-01-04T06:47:48.177Z,76.29
2023-01-04T06:50:16.674Z,75.67
2023-01-04T06:52:45.016Z,76.05
2023-01-04T06:55:14.873Z,75.59
2023-01-04T06:57:43.323Z,77.32
2023-01-04T07:00:12.890Z,76.60
2023-01-04T07:03:12.739Z,76.60
2023-01-04T07:05:29.803Z,76.80
2023-01-04T07:08:07.367Z,75.73
2023-01-04T07:10:38.192Z,76.08
2023-01-04T07:13:07.456Z,76.32
2023-01-04T07:15:38.454Z,76.11
2023-01-04T07:18:09.058Z,76.13
2023-01-04T07:20:37.794Z,76.31
2023-01-04T07:23:06.928Z,76.12
2023-01-04T07:25:35.738Z,75.95
2023-01-04T07:28:05.998Z,76.56
2023-01-04T07:30:34.465Z,76.11
2023-01-04T07:33:02.891Z,76.67
2023-01-04T07:35:31.259Z,76.26
2023-01-04T07:37:59.563Z,76.50
2023-01-04T07:40:28.753Z,75.86
2023-01-04T07:42:58.323Z,76.01
2023-01-04T07:45:28.920Z,76.61
2023-01-04T07:47:58.835Z,76.87
2023-01-04T07:50:27.444Z,76.44
2023-01-04T07:52:55.911Z,76.74
2023-01-04T07:55:24.295Z,76.54
2023-01-04T07:57:54.587Z,76.93
2023-01-04T08:00:23.148Z,77.84
2023-01-04T08:02:53.094Z,77.33
2023-01-04T08:05:23.119Z,77.32
2023-01-04T08:07:51.541Z,76.78
2023-01-04T08:10:19.949Z,76.43
2023-01-04T08:12:48.317Z,76.33
2023-01-04T08:15:16.784Z,75.55
2023-01-04T08:17:46.401Z,76.09
2023-01-04T08:20:16.253Z,75.62
2023-01-04T08:22:44.675Z,75.46
2023-01-04T08:25:13.048Z,75.95
2023-01-04T08:27:41.981Z,75.22
2023-01-04T08:30:11.317Z,76.04
2023-01-04T08:32:40.842Z,76.65
2023-01-04T08:35:09.679Z,77.34
2023-01-04T08:37:39.418Z,77.22
2023-01-04T08:40:09.185Z,77.04
2023-01-04T08:42:37.735Z,78.46
2023-01-04T08:45:07.153Z,78.08
2023-01-04T08:47:35.636Z,78.86
2023-01-04T08:50:10.212Z,78.48
2023-01-04T08:52:40.784Z,77.81
2023-01-04T08:55:13.152Z,76.88
2023-01-04T08:57:43.210Z,75.95
2023-01-04T09:00:12.545Z,75.01
2023-01-04T09:02:41.138Z,74.54
2023-01-04T09:05:10.165Z,74.31
2023-01-04T09:07:40.278Z,73.75
2023-01-04T09:10:09.900Z,72.56
2023-01-04T09:12:38.528Z,72.98
2023-01-04T09:15:08.063Z,72.60
2023-01-04T09:17:46.536Z,73.51
2023-01-04T09:20:24.946Z,73.29
2023-01-04T09:22:54.817Z,73.56
2023-01-04T09:25:23.356Z,72.21
2023-01-04T09:27:51.844Z,72.67
2023-01-04T09:30:20.487Z,72.90
2023-01-04T09:32:48.913Z,73.23
2023-01-04T09:35:17.456Z,72.00
2023-01-04T09:37:45.932Z,72.48
2023-01-04T09:40:22.106Z,72.41
2023-01-04T09:42:52.141Z,72.46
2023-01-04T09:45:42.424Z,71.82
2023-01-04T09:48:18.907Z,71.47
2023-01-04T09:50:55.809Z,71.08
2023-01-04T09:53:29.239Z,71.84
2023-01-04T09:56:05.361Z,71.95
2023-01-04T09:58:35.898Z,72.36
2023-01-04T10:01:08.118Z,72.18
2023-01-04T10:03:39.258Z,73.25
2023-01-04T10:06:11.509Z,74.13
2023-01-04T10:08:42.264Z,74.17
2023-01-04T10:11:43.328Z,73.46
2023-01-04T10:14:30.162Z,73.86
2023-01-04T10:17:13.669Z,73.49
2023-01-04T10:22:55.676Z,73.17
2023-01-04T10:25:31.067Z,73.13
2023-01-04T10:28:18.225Z,72.68
2023-01-04T10:30:56.115Z,71.41
2023-01-04T10:33:32.631Z,70.95
2023-01-04T10:36:01.891Z,70.41
2023-01-04T10:38:39.631Z,70.90
2023-01-04T10:41:13.616Z,70.28
2023-01-04T10:44:11.346Z,70.17
2023-01-04T10:46:46.454Z,70.41
2023-01-04T10:49:22.098Z,69.72
2023-01-04T10:51:59.863Z,70.10
2023-01-04T10:54:34.323Z,69.89
2023-01-04T10:57:09.455Z,70.05
2023-01-04T10:59:45.404Z,69.63
2023-01-04T11:02:21.000Z,69.33
2023-01-04T11:04:57.542Z,68.99
2023-01-04T11:07:30.012Z,68.71
2023-01-04T11:10:04.628Z,69.42
2023-01-04T11:12:34.203Z,69.76
2023-01-04T11:15:04.760Z,68.33
2023-01-04T11:17:34.263Z,67.35
2023-01-04T11:20:02.874Z,67.83
2023-01-04T11:22:37.643Z,68.05
2023-01-04T11:28:07.656Z,68.24
2023-01-04T11:30:48.025Z,67.65
2023-01-04T11:33:20.518Z,66.16
2023-01-04T11:35:50.891Z,66.23
2023-01-04T11:38:21.352Z,65.72
2023-01-04T11:40:59.090Z,64.47
2023-01-04T11:43:29.671Z,62.78
2023-01-04T11:46:05.346Z,62.59
2023-01-04T11:48:39.780Z,62.45
2023-01-04T11:51:18.823Z,62.47
2023-01-04T11:53:48.206Z,62.70
2023-01-04T11:56:21.927Z,60.73
2023-01-04T11:59:20.694Z,61.44
2023-01-04T12:02:35.244Z,60.85
2023-01-04T12:05:26.215Z,61.26
2023-01-04T12:07:57.107Z,61.67
2023-01-04T12:10:27.593Z,62.29
2023-01-04T12:12:57.422Z,61.87
2023-01-04T12:15:33.309Z,61.64
2023-01-04T12:18:08.018Z,61.40
2023-01-04T12:20:37.493Z,60.21
2023-01-04T12:23:05.794Z,60.95
2023-01-04T12:25:39.543Z,60.71
2023-01-04T12:28:08.369Z,60.39
2023-01-04T12:30:42.004Z,61.09
2023-01-04T12:33:40.697Z,61.59
2023-01-04T12:36:10.939Z,62.10
2023-01-04T12:38:59.488Z,61.82
2023-01-04T12:42:17.894Z,62.06
2023-01-04T12:45:16.895Z,62.06
2023-01-04T12:48:07.120Z,62.19
2023-01-04T12:51:32.834Z,62.13
2023-01-04T12:54:04.184Z,61.14
2023-01-04T12:57:26.830Z,60.89
2023-01-04T12:59:58.803Z,61.58
2023-01-04T13:02:29.139Z,61.47
2023-01-04T13:05:33.720Z,61.54
2023-01-04T13:07:51.806Z,61.37
2023-01-04T13:10:33.366Z,61.03
2023-01-04T13:13:28.542Z,60.02
2023-01-04T13:16:19.313Z,58.66
2023-01-04T13:18:50.543Z,57.75
2023-01-04T13:21:26.954Z,58.17
2023-01-04T13:23:59.646Z,58.01
2023-01-04T13:26:35.934Z,58.13
2023-01-04T13:29:09.864Z,57.23
2023-01-04T13:31:47.321Z,57.77
2023-01-04T13:34:24.869Z,56.86
2023-01-04T13:37:02.247Z,56.55
2023-01-04T13:39:32.214Z,56.74
2023-01-04T13:42:01.169Z,56.27
2023-01-04T13:47:51.746Z,56.31
2023-01-04T13:50:30.865Z,56.17
2023-01-04T13:53:06.890Z,57.09
2023-01-04T13:55:39.535Z,56.92
2023-01-04T13:58:17.684Z,56.10
2023-01-04T14:00:49.730Z,56.10
2023-01-04T14:03:34.095Z,55.70
2023-01-04T14:06:22.577Z,55.86
2023-01-04T14:09:00.426Z,56.21
2023-01-04T14:11:52.492Z,55.98
2023-01-04T14:14:33.604Z,55.41
2023-01-04T14:17:18.418Z,54.19
2023-01-04T14:19:53.198Z,54.45
2023-01-04T14:22:27.555Z,53.74
2023-01-04T14:25:13.218Z,54.34
2023-01-04T14:27:44.402Z,53.89
2023-01-04T14:30:24.162Z,52.89
2023-01-04T14:32:57.838Z,52.51
2023-01-04T14:35:27.782Z,51.48
2023-01-04T14:37:57.066Z,52.60
2023-01-04T14:40:28.059Z,51.79
2023-01-04T14:42:59.269Z,50.90
2023-01-04T14:45:27.739Z,50.39
2023-01-04T14:47:56.006Z,50.67
2023-01-04T14:50:24.490Z,50.25
2023-01-04T14:52:54.539Z,51.86
2023-01-04T14:55:24.920Z,52.68
2023-01-04T14:57:53.352Z,53.00
2023-01-04T15:00:23.356Z,53.25
2023-01-04T15:02:52.199Z,54.24
2023-01-04T15:05:20.957Z,54.50
2023-01-04T15:07:49.547Z,54.21
2023-01-04T15:10:23.950Z,53.91
2023-01-04T15:12:52.317Z,54.13
2023-01-04T15:15:22.710Z,53.83
2023-01-04T15:17:51.184Z,54.03
2023-01-04T15:20:19.678Z,53.70
2023-01-04T15:22:48.240Z,54.41
2023-01-04T15:25:16.532Z,55.58
2023-01-04T15:27:44.969Z,56.33
2023-01-04T15:30:15.773Z,57.77
2023-01-04T15:32:45.747Z,58.06
2023-01-04T15:35:17.306Z,58.63
2023-01-04T15:37:46.047Z,58.94
2023-01-04T15:40:16.612Z,59.78
2023-01-04T15:43:00.484Z,59.74
2023-01-04T15:45:29.720Z,59.97
2023-01-04T15:48:03.287Z,60.74
2023-01-04T15:50:32.642Z,61.17
2023-01-04T15:53:01.018Z,61.70
2023-01-04T15:55:34.141Z,61.80
2023-01-04T15:58:04.694Z,62.48
2023-01-04T16:00:33.102Z,63.22
2023-01-04T16:03:03.032Z,63.87
2023-01-04T16:05:31.560Z,64.08
2023-01-04T16:07:59.951Z,64.94
2023-01-04T16:10:28.396Z,65.29
2023-01-04T16:12:58.062Z,65.93
2023-01-04T16:15:27.737Z,66.39
2023-01-04T16:17:56.346Z,67.11
2023-01-04T16:20:26.169Z,67.61
2023-01-04T16:22:54.507Z,67.41
2023-01-04T16:25:22.987Z,67.63
2023-01-04T16:27:51.516Z,67.49
2023-01-04T16:30:23.325Z,68.20
2023-01-04T16:32:56.375Z,68.73
2023-01-04T16:35:26.135Z,69.38
2023-01-04T16:37:54.534Z,69.96
2023-01-04T16:40:23.010Z,70.61
2023-01-04T16:42:51.516Z,70.68
2023-01-04T16:45:20.334Z,71.15
2023-01-04T16:47:50.443Z,71.63
2023-01-04T16:50:18.941Z,71.35
2023-01-04T16:52:48.822Z,71.70
2023-01-04T16:55:23.618Z,72.06
2023-01-04T16:57:52.507Z,72.13
2023-01-04T17:00:21.284Z,72.02
2023-01-04T17:02:49.743Z,71.69
2023-01-04T17:05:18.071Z,71.60
2023-01-04T17:07:46.480Z,71.37
2023-01-04T17:10:16.425Z,71.42
2023-01-04T17:12:48.040Z,71.63
2023-01-04T17:15:43.030Z,71.31
2023-01-04T17:18:06.886Z,71.51
2023-01-04T17:20:35.245Z,71.83
2023-01-04T17:23:03.610Z,72.14
2023-01-04T17:25:33.430Z,71.73
2023-01-04T17:28:01.842Z,72.36
2023-01-04T17:30:30.107Z,72.21
2023-01-04T17:32:58.495Z,72.29
2023-01-04T17:35:27.015Z,72.32
2023-01-04T17:37:55.379Z,72.38
2023-01-04T17:40:24.043Z,71.89
2023-01-04T17:42:53.949Z,72.36
2023-01-04T17:45:22.691Z,72.45
2023-01-04T17:47:52.591Z,72.70
2023-01-04T17:50:23.121Z,72.54
2023-01-04T17:52:51.958Z,72.75
2023-01-04T17:55:21.195Z,73.13
2023-01-04T17:57:49.649Z,73.26
2023-01-04T18:00:19.965Z,73.76
2023-01-04T18:02:48.304Z,73.42
2023-01-04T18:05:16.815Z,73.57
2023-01-04T18:07:45.188Z,73.41
2023-01-04T18:10:21.431Z,73.44
2023-01-04T18:13:03.650Z,73.21
2023-01-04T18:15:36.146Z,73.01
2023-01-04T18:18:07.999Z,72.64
2023-01-04T18:20:36.332Z,73.44
2023-01-04T18:23:04.696Z,73.15
2023-01-04T18:25:34.624Z,73.55
2023-01-04T18:28:03.040Z,74.24
2023-01-04T18:30:37.263Z,73.66
2023-01-04T18:33:05.851Z,73.21
2023-01-04T18:35:35.647Z,73.07
2023-01-04T18:38:04.148Z,73.72
2023-01-04T18:40:32.498Z,74.11
2023-01-04T18:43:00.870Z,73.39
2023-01-04T18:45:29.495Z,73.78
2023-01-04T18:47:59.465Z,73.63
2023-01-04T18:50:27.873Z,73.56
2023-01-04T18:52:56.292Z,74.49
2023-01-04T18:55:24.613Z,73.43
2023-01-04T18:57:52.937Z,74.21
2023-01-04T19:00:21.499Z,74.37
2023-01-04T19:02:50.109Z,73.60
2023-01-04T19:05:20.190Z,73.63
2023-01-04T19:07:50.426Z,73.29
2023-01-04T19:10:18.849Z,73.32
2023-01-04T19:12:47.228Z,74.29
2023-01-04T19:15:15.827Z,73.96
2023-01-04T19:17:44.231Z,73.82
2023-01-04T19:20:12.745Z,73.64
2023-01-04T19:22:42.558Z,74.19
2023-01-04T19:25:11.104Z,74.31
2023-01-04T19:27:39.543Z,74.74
2023-01-04T19:30:09.347Z,74.75
2023-01-04T19:32:37.755Z,74.93
2023-01-04T19:35:06.756Z,75.15
2023-01-04T19:37:35.133Z,75.27
2023-01-04T19:40:05.541Z,75.65
2023-01-04T19:42:33.922Z,75.09
2023-01-04T19:45:02.305Z,75.20
2023-01-04T19:47:30.679Z,75.26
2023-01-04T19:50:00.037Z,74.65
2023-01-04T19:52:30.893Z,74.60
2023-01-04T19:54:59.273Z,74.26
2023-01-04T19:57:29.147Z,74.18
2023-01-04T19:59:57.495Z,74.08
2023-01-04T20:02:27.127Z,74.22
2023-01-04T20:04:55.757Z,73.85
2023-01-04T20:07:24.122Z,73.98
2023-01-04T20:09:52.494Z,73.53
2023-01-04T20:12:21.729Z,74.10
2023-01-04T20:14:51.488Z,74.17
2023-01-04T20:17:19.902Z,74.69
2023-01-04T20:19:48.380Z,74.25
2023-01-04T20:22:16.768Z,74.25
2023-01-04T20:24:45.153Z,74.45
2023-01-04T20:27:13.528Z,74.44
2023-01-04T20:29:41.983Z,74.32
2023-01-04T20:32:12.856Z,73.84
2023-01-04T20:34:41.288Z,73.90
2023-01-04T20:37:09.697Z,73.89
2023-01-04T20:39:38.138Z,73.58
2023-01-04T20:42:23.848Z,73.70
2023-01-04T20:44:52.297Z,74.05
2023-01-04T20:47:22.266Z,74.03
2023-01-04T20:49:50.667Z,74.37
2023-01-04T20:52:19.040Z,74.55
2023-01-04T20:54:50.084Z,74.56
2023-01-04T20:57:18.557Z,74.69
2023-01-04T20:59:46.969Z,74.85
2023-01-04T21:02:15.710Z,75.09
2023-01-04T21:04:46.892Z,74.62
2023-01-04T21:07:15.311Z,74.68
2023-01-04T21:09:43.681Z,75.14
2023-01-04T21:12:12.046Z,75.23
2023-01-04T21:14:40.995Z,75.01
2023-01-04T21:17:09.494Z,75.30
2023-01-04T21:19:37.892Z,75.14
2023-01-04T21:22:08.827Z,75.16
2023-01-04T21:24:37.453Z,75.60
2023-01-04T21:27:05.994Z,75.10
2023-01-04T21:29:34.321Z,75.73
2023-01-04T21:32:02.715Z,75.91
2023-01-04T21:34:31.696Z,75.38
2023-01-04T21:37:00.170Z,75.53
2023-01-04T21:39:30.030Z,76.50
2023-01-04T21:41:58.475Z,75.93
2023-01-04T21:44:26.896Z,76.66
2023-01-04T21:46:55.478Z,76.07
2023-01-04T21:49:23.959Z,76.66
2023-01-04T21:51:52.368Z,76.60
2023-01-04T21:54:20.839Z,76.55
2023-01-04T21:56:50.730Z,76.69
2023-01-04T21:59:19.314Z,76.51
2023-01-04T22:01:47.860Z,76.16
2023-01-04T22:04:16.429Z,76.61
2023-01-04T22:06:44.918Z,76.05
2023-01-04T22:09:13.537Z,75.87
2023-01-04T22:11:43.425Z,76.03
2023-01-04T22:14:13.232Z,76.47
2023-01-04T22:16:41.678Z,76.11
2023-01-04T22:19:13.363Z,75.22
2023-01-04T22:21:41.961Z,75.78
2023-01-04T22:24:12.929Z,75.60
2023-01-04T22:26:42.146Z,75.62
2023-01-04T22:29:11.385Z,75.44
2023-01-04T22:31:41.330Z,75.98
2023-01-04T22:34:09.999Z,76.19
2023-01-04T22:36:38.399Z,75.85
2023-01-04T22:39:07.278Z,75.66
2023-01-04T22:41:35.938Z,75.79
2023-01-04T22:44:07.006Z,76.03
2023-01-04T22:46:36.613Z,75.84
2023-01-04T22:49:06.662Z,75.76
2023-01-04T22:51:35.001Z,75.83
2023-01-04T22:54:05.784Z,75.72
2023-01-04T22:56:34.408Z,76.13
2023-01-04T22:59:02.783Z,76.36
2023-01-04T23:01:42.692Z,76.15
2023-01-04T23:04:17.079Z,75.77
2023-01-04T23:06:45.609Z,76.13
2023-01-04T23:09:17.442Z,75.75
2023-01-04T23:11:46.109Z,76.40
2023-01-04T23:14:16.226Z,76.13
2023-01-04T23:16:45.145Z,75.19
2023-01-04T23:19:15.785Z,75.46
2023-01-04T23:21:44.509Z,75.74
2023-01-04T23:24:14.520Z,75.59
2023-01-04T23:26:44.223Z,75.43
2023-01-04T23:29:13.659Z,75.24
2023-01-04T23:31:42.163Z,75.39
2023-01-04T23:34:13.537Z,76.35
2023-01-04T23:36:43.965Z,76.49
2023-01-04T23:39:14.660Z,76.28
2023-01-04T23:41:46.285Z,76.13
2023-01-04T23:44:20.286Z,76.07
2023-01-04T23:46:52.433Z,76.44
2023-01-04T23:49:20.919Z,76.98
2023-01-04T23:51:50.993Z,76.16
2023-01-04T23:54:19.745Z,76.85
2023-01-04T23:56:49.198Z,76.38
2023-01-04T23:59:17.651Z,76.33
